sensor_id;sensor_type;location;lat;lon;timestamp;pressure;altitude;pressure_sealevel;temperature;humidity
78354;BME280;67629;46.040;18.232;2023-07-08T00:00:12;100198.88;;;17.92;74.50
78354;BME280;67629;46.040;18.232;2023-07-08T00:00:44;100193.63;;;17.90;74.57
78354;BME280;67629;46.040;18.232;2023-07-08T00:01:21;100196.09;;;17.92;74.44
78354;BME280;67629;46.040;18.232;2023-07-08T00:01:52;100195.28;;;17.91;74.71
78354;BME280;67629;46.040;18.232;2023-07-08T00:02:22;100191.44;;;17.87;75.27
78354;BME280;67629;46.040;18.232;2023-07-08T00:02:53;100191.97;;;17.84;75.31
78354;BME280;67629;46.040;18.232;2023-07-08T00:03:23;100192.78;;;17.80;76.54
78354;BME280;67629;46.040;18.232;2023-07-08T00:03:54;100196.13;;;17.82;75.38
78354;BME280;67629;46.040;18.232;2023-07-08T00:04:24;100197.22;;;17.86;74.97
78354;BME280;67629;46.040;18.232;2023-07-08T00:04:56;100196.69;;;17.84;75.24
78354;BME280;67629;46.040;18.232;2023-07-08T00:05:26;100195.56;;;17.85;74.83
78354;BME280;67629;46.040;18.232;2023-07-08T00:05:57;100197.50;;;17.84;74.54
78354;BME280;67629;46.040;18.232;2023-07-08T00:06:28;100197.22;;;17.81;75.78
78354;BME280;67629;46.040;18.232;2023-07-08T00:06:58;100210.50;;;17.79;75.55
78354;BME280;67629;46.040;18.232;2023-07-08T00:07:29;100196.94;;;17.82;74.86
78354;BME280;67629;46.040;18.232;2023-07-08T00:08:00;100197.50;;;17.84;74.64
78354;BME280;67629;46.040;18.232;2023-07-08T00:08:30;100206.88;;;17.88;74.96
78354;BME280;67629;46.040;18.232;2023-07-08T00:09:01;100206.63;;;17.90;74.47
78354;BME280;67629;46.040;18.232;2023-07-08T00:09:31;100195.56;;;17.90;73.93
78354;BME280;67629;46.040;18.232;2023-07-08T00:10:40;100199.44;;;17.99;73.84
78354;BME280;67629;46.040;18.232;2023-07-08T00:11:13;100203.00;;;18.04;73.25
78354;BME280;67629;46.040;18.232;2023-07-08T00:11:43;100198.88;;;18.02;73.58
78354;BME280;67629;46.040;18.232;2023-07-08T00:12:14;100198.59;;;18.03;73.42
78354;BME280;67629;46.040;18.232;2023-07-08T00:12:48;100199.97;;;18.06;73.08
78354;BME280;67629;46.040;18.232;2023-07-08T00:13:19;100199.13;;;18.10;72.83
78354;BME280;67629;46.040;18.232;2023-07-08T00:13:50;100201.59;;;18.12;72.34
78354;BME280;67629;46.040;18.232;2023-07-08T00:14:20;100196.34;;;18.15;72.06
78354;BME280;67629;46.040;18.232;2023-07-08T00:14:51;100200.50;;;18.13;72.23
78354;BME280;67629;46.040;18.232;2023-07-08T00:15:26;100206.59;;;18.10;72.71
78354;BME280;67629;46.040;18.232;2023-07-08T00:15:57;100198.56;;;18.08;72.60
78354;BME280;67629;46.040;18.232;2023-07-08T00:16:29;100197.19;;;18.06;72.41
78354;BME280;67629;46.040;18.232;2023-07-08T00:17:00;100193.59;;;18.05;72.79
78354;BME280;67629;46.040;18.232;2023-07-08T00:17:30;100203.00;;;17.99;73.16
78354;BME280;67629;46.040;18.232;2023-07-08T00:18:03;100198.59;;;17.98;73.55
78354;BME280;67629;46.040;18.232;2023-07-08T00:18:40;100199.69;;;17.97;73.89
78354;BME280;67629;46.040;18.232;2023-07-08T00:19:11;100205.50;;;17.96;73.90
78354;BME280;67629;46.040;18.232;2023-07-08T00:19:41;100206.59;;;17.95;74.15
78354;BME280;67629;46.040;18.232;2023-07-08T00:20:27;100199.72;;;17.92;73.92
78354;BME280;67629;46.040;18.232;2023-07-08T00:21:02;100199.97;;;17.91;73.90
78354;BME280;67629;46.040;18.232;2023-07-08T00:21:35;100194.44;;;17.91;74.20
78354;BME280;67629;46.040;18.232;2023-07-08T00:22:11;100191.69;;;17.86;74.19
78354;BME280;67629;46.040;18.232;2023-07-08T00:22:43;100193.06;;;17.83;74.80
78354;BME280;67629;46.040;18.232;2023-07-08T00:23:17;100193.06;;;17.83;75.08
78354;BME280;67629;46.040;18.232;2023-07-08T00:23:52;100198.06;;;17.86;74.40
78354;BME280;67629;46.040;18.232;2023-07-08T00:24:22;100200.81;;;17.86;74.37
78354;BME280;67629;46.040;18.232;2023-07-08T00:24:53;100197.75;;;17.83;74.65
78354;BME280;67629;46.040;18.232;2023-07-08T00:25:24;100200.53;;;17.78;74.73
78354;BME280;67629;46.040;18.232;2023-07-08T00:25:54;100203.31;;;17.73;75.21
78354;BME280;67629;46.040;18.232;2023-07-08T00:26:28;100194.72;;;17.74;75.25
78354;BME280;67629;46.040;18.232;2023-07-08T00:26:59;100198.88;;;17.77;74.62
78354;BME280;67629;46.040;18.232;2023-07-08T00:27:30;100202.47;;;17.72;75.47
78354;BME280;67629;46.040;18.232;2023-07-08T00:28:01;100205.53;;;17.71;75.52
78354;BME280;67629;46.040;18.232;2023-07-08T00:28:31;100203.31;;;17.73;75.38
78354;BME280;67629;46.040;18.232;2023-07-08T00:29:02;100199.19;;;17.70;75.66
78354;BME280;67629;46.040;18.232;2023-07-08T00:29:33;100207.44;;;17.65;75.63
78354;BME280;67629;46.040;18.232;2023-07-08T00:30:23;100201.09;;;17.64;75.50
78354;BME280;67629;46.040;18.232;2023-07-08T00:30:56;100202.19;;;17.63;75.61
78354;BME280;67629;46.040;18.232;2023-07-08T00:31:28;100202.50;;;17.67;75.08
78354;BME280;67629;46.040;18.232;2023-07-08T00:32:09;100201.09;;;17.64;75.13
78354;BME280;67629;46.040;18.232;2023-07-08T00:32:40;100209.66;;;17.63;75.40
78354;BME280;67629;46.040;18.232;2023-07-08T00:33:12;100208.28;;;17.65;75.19
78354;BME280;67629;46.040;18.232;2023-07-08T00:33:42;100211.03;;;17.65;75.32
78354;BME280;67629;46.040;18.232;2023-07-08T00:34:13;100206.88;;;17.68;74.67
78354;BME280;67629;46.040;18.232;2023-07-08T00:34:46;100209.09;;;17.71;74.34
78354;BME280;67629;46.040;18.232;2023-07-08T00:35:16;100209.38;;;17.75;74.01
78354;BME280;67629;46.040;18.232;2023-07-08T00:35:47;100204.94;;;17.74;73.85
78354;BME280;67629;46.040;18.232;2023-07-08T00:36:18;100206.06;;;17.73;73.90
78354;BME280;67629;46.040;18.232;2023-07-08T00:36:49;100214.06;;;17.74;74.57
78354;BME280;67629;46.040;18.232;2023-07-08T00:37:19;100203.84;;;17.59;75.42
78354;BME280;67629;46.040;18.232;2023-07-08T00:37:51;100207.72;;;17.58;75.23
78354;BME280;67629;46.040;18.232;2023-07-08T00:38:31;100208.28;;;17.65;74.15
78354;BME280;67629;46.040;18.232;2023-07-08T00:39:02;100209.38;;;17.70;73.70
78354;BME280;67629;46.040;18.232;2023-07-08T00:39:33;100206.34;;;17.71;73.74
78354;BME280;67629;46.040;18.232;2023-07-08T00:40:17;100209.94;;;17.67;74.22
78354;BME280;67629;46.040;18.232;2023-07-08T00:41:38;100219.91;;;17.68;73.66
78354;BME280;67629;46.040;18.232;2023-07-08T00:42:19;100211.31;;;17.74;73.82
78354;BME280;67629;46.040;18.232;2023-07-08T00:42:53;100210.75;;;17.77;73.10
78354;BME280;67629;46.040;18.232;2023-07-08T00:43:34;100206.38;;;17.76;72.95
78354;BME280;67629;46.040;18.232;2023-07-08T00:44:10;100216.84;;;17.74;72.63
78354;BME280;67629;46.040;18.232;2023-07-08T00:44:41;100208.53;;;17.74;73.29
78354;BME280;67629;46.040;18.232;2023-07-08T00:45:37;100209.09;;;17.71;73.05
78354;BME280;67629;46.040;18.232;2023-07-08T00:47:07;100210.50;;;17.79;72.36
78354;BME280;67629;46.040;18.232;2023-07-08T00:47:38;100209.94;;;17.77;72.56
78354;BME280;67629;46.040;18.232;2023-07-08T00:48:19;100210.22;;;17.70;73.80
78354;BME280;67629;46.040;18.232;2023-07-08T00:49:08;100208.56;;;17.59;73.79
78354;BME280;67629;46.040;18.232;2023-07-08T00:49:57;100214.91;;;17.59;73.75
78354;BME280;67629;46.040;18.232;2023-07-08T00:50:30;100209.94;;;17.67;72.58
78354;BME280;67629;46.040;18.232;2023-07-08T00:51:01;100215.72;;;17.65;73.28
78354;BME280;67629;46.040;18.232;2023-07-08T00:51:37;100214.09;;;17.59;73.57
78354;BME280;67629;46.040;18.232;2023-07-08T00:52:20;100214.34;;;17.57;73.60
78354;BME280;67629;46.040;18.232;2023-07-08T00:54:40;100212.13;;;17.54;74.02
78354;BME280;67629;46.040;18.232;2023-07-08T00:55:12;100212.97;;;17.60;73.68
78354;BME280;67629;46.040;18.232;2023-07-08T00:55:43;100217.69;;;17.64;72.87
78354;BME280;67629;46.040;18.232;2023-07-08T00:56:38;100213.78;;;17.65;72.72
78354;BME280;67629;46.040;18.232;2023-07-08T00:57:29;100214.09;;;17.69;71.91
78354;BME280;67629;46.040;18.232;2023-07-08T00:58:21;100220.44;;;17.75;71.29
78354;BME280;67629;46.040;18.232;2023-07-08T00:59:15;100218.22;;;17.72;72.05
78354;BME280;67629;46.040;18.232;2023-07-08T01:00:15;100218.22;;;17.72;72.36
78354;BME280;67629;46.040;18.232;2023-07-08T01:01:05;100214.91;;;17.54;73.48
78354;BME280;67629;46.040;18.232;2023-07-08T01:01:55;100214.88;;;17.49;73.42
78354;BME280;67629;46.040;18.232;2023-07-08T01:02:28;100213.81;;;17.55;72.82
78354;BME280;67629;46.040;18.232;2023-07-08T01:02:59;100211.31;;;17.54;72.58
78354;BME280;67629;46.040;18.232;2023-07-08T01:03:31;100203.31;;;17.57;72.28
78354;BME280;67629;46.040;18.232;2023-07-08T01:04:20;100209.09;;;17.66;71.29
78354;BME280;67629;46.040;18.232;2023-07-08T01:05:00;100212.69;;;17.72;71.23
78354;BME280;67629;46.040;18.232;2023-07-08T01:05:32;100211.88;;;17.76;70.53
78354;BME280;67629;46.040;18.232;2023-07-08T01:06:05;100198.06;;;17.76;70.63
78354;BME280;67629;46.040;18.232;2023-07-08T01:06:39;100203.84;;;17.80;70.14
78354;BME280;67629;46.040;18.232;2023-07-08T01:07:11;100211.88;;;17.81;70.19
78354;BME280;67629;46.040;18.232;2023-07-08T01:07:45;100207.16;;;17.77;70.55
78354;BME280;67629;46.040;18.232;2023-07-08T01:08:17;100207.16;;;17.77;70.34
78354;BME280;67629;46.040;18.232;2023-07-08T01:08:49;100203.31;;;17.78;69.94
78354;BME280;67629;46.040;18.232;2023-07-08T01:09:31;100202.47;;;17.82;69.65
78354;BME280;67629;46.040;18.232;2023-07-08T01:10:14;100208.00;;;17.87;69.31
78354;BME280;67629;46.040;18.232;2023-07-08T01:10:53;100208.28;;;17.86;70.24
78354;BME280;67629;46.040;18.232;2023-07-08T01:11:26;100204.97;;;17.84;69.85
78354;BME280;67629;46.040;18.232;2023-07-08T01:12:01;100198.31;;;17.80;69.90
78354;BME280;67629;46.040;18.232;2023-07-08T01:12:40;100211.34;;;17.79;70.40
78354;BME280;67629;46.040;18.232;2023-07-08T01:13:14;100201.91;;;17.80;70.15
78354;BME280;67629;46.040;18.232;2023-07-08T01:13:51;100211.03;;;17.86;69.43
78354;BME280;67629;46.040;18.232;2023-07-08T01:14:24;100204.94;;;17.89;69.66
78354;BME280;67629;46.040;18.232;2023-07-08T01:14:58;100203.31;;;17.88;68.63
78354;BME280;67629;46.040;18.232;2023-07-08T01:15:41;100206.63;;;17.90;69.17
78354;BME280;67629;46.040;18.232;2023-07-08T01:16:13;100196.69;;;17.84;69.59
78354;BME280;67629;46.040;18.232;2023-07-08T01:16:46;100198.88;;;17.77;70.76
78354;BME280;67629;46.040;18.232;2023-07-08T01:17:16;100198.34;;;17.70;70.72
78354;BME280;67629;46.040;18.232;2023-07-08T01:17:48;100209.94;;;17.72;70.49
78354;BME280;67629;46.040;18.232;2023-07-08T01:18:24;100204.16;;;17.73;70.20
78354;BME280;67629;46.040;18.232;2023-07-08T01:18:55;100199.44;;;17.79;70.05
78354;BME280;67629;46.040;18.232;2023-07-08T01:19:28;100203.59;;;17.81;69.95
78354;BME280;67629;46.040;18.232;2023-07-08T01:20:06;100202.47;;;17.72;70.50
78354;BME280;67629;46.040;18.232;2023-07-08T01:20:37;100201.63;;;17.77;69.86
78354;BME280;67629;46.040;18.232;2023-07-08T01:21:39;100197.22;;;17.76;70.45
78354;BME280;67629;46.040;18.232;2023-07-08T01:22:11;100207.44;;;17.75;70.67
78354;BME280;67629;46.040;18.232;2023-07-08T01:22:42;100204.41;;;17.67;71.49
78354;BME280;67629;46.040;18.232;2023-07-08T01:23:14;100210.75;;;17.62;71.48
78354;BME280;67629;46.040;18.232;2023-07-08T01:23:44;100209.38;;;17.59;71.47
78354;BME280;67629;46.040;18.232;2023-07-08T01:24:15;100209.91;;;17.56;72.09
78354;BME280;67629;46.040;18.232;2023-07-08T01:24:46;100204.13;;;17.58;71.99
78354;BME280;67629;46.040;18.232;2023-07-08T01:25:16;100210.78;;;17.67;70.45
78354;BME280;67629;46.040;18.232;2023-07-08T01:25:47;100208.00;;;17.67;70.31
78354;BME280;67629;46.040;18.232;2023-07-08T01:26:18;100214.59;;;17.46;72.65
78354;BME280;67629;46.040;18.232;2023-07-08T01:26:49;100203.53;;;17.46;71.68
78354;BME280;67629;46.040;18.232;2023-07-08T01:27:19;100208.25;;;17.50;71.79
78354;BME280;67629;46.040;18.232;2023-07-08T01:27:54;100203.28;;;17.52;70.85
78354;BME280;67629;46.040;18.232;2023-07-08T01:28:27;100204.69;;;17.60;70.36
78354;BME280;67629;46.040;18.232;2023-07-08T01:28:59;100212.72;;;17.61;70.31
78354;BME280;67629;46.040;18.232;2023-07-08T01:29:30;100205.53;;;17.55;71.78
78354;BME280;67629;46.040;18.232;2023-07-08T01:30:03;100203.84;;;17.54;71.83
78354;BME280;67629;46.040;18.232;2023-07-08T01:30:35;100206.34;;;17.56;71.41
78354;BME280;67629;46.040;18.232;2023-07-08T01:31:06;100204.41;;;17.56;70.85
78354;BME280;67629;46.040;18.232;2023-07-08T01:31:37;100195.84;;;17.58;70.30
78354;BME280;67629;46.040;18.232;2023-07-08T01:32:15;100208.00;;;17.57;71.80
78354;BME280;67629;46.040;18.232;2023-07-08T01:32:52;100203.53;;;17.51;72.06
78354;BME280;67629;46.040;18.232;2023-07-08T01:33:25;100204.09;;;17.53;71.48
78354;BME280;67629;46.040;18.232;2023-07-08T01:33:56;100196.91;;;17.52;70.89
78354;BME280;67629;46.040;18.232;2023-07-08T01:34:26;100199.38;;;17.53;71.31
78354;BME280;67629;46.040;18.232;2023-07-08T01:35:01;100196.09;;;17.56;69.92
78354;BME280;67629;46.040;18.232;2023-07-08T01:35:34;100195.00;;;17.57;69.81
78354;BME280;67629;46.040;18.232;2023-07-08T01:36:04;100204.41;;;17.61;69.80
78354;BME280;67629;46.040;18.232;2023-07-08T01:36:40;100204.91;;;17.48;71.73
78354;BME280;67629;46.040;18.232;2023-07-08T01:37:13;100191.94;;;17.39;72.91
78354;BME280;67629;46.040;18.232;2023-07-08T01:37:51;100197.72;;;17.32;72.86
78354;BME280;67629;46.040;18.232;2023-07-08T01:38:25;100203.78;;;17.39;72.28
78354;BME280;67629;46.040;18.232;2023-07-08T01:38:57;100205.75;;;17.44;71.84
78354;BME280;67629;46.040;18.232;2023-07-08T01:39:30;100202.41;;;17.37;71.39
78354;BME280;67629;46.040;18.232;2023-07-08T01:40:52;100203.25;;;17.42;70.40
78354;BME280;67629;46.040;18.232;2023-07-08T01:41:23;100205.47;;;17.45;70.53
78354;BME280;67629;46.040;18.232;2023-07-08T01:41:55;100209.31;;;17.29;72.26
78354;BME280;67629;46.040;18.232;2023-07-08T01:42:26;100199.38;;;17.18;72.76
78354;BME280;67629;46.040;18.232;2023-07-08T01:42:58;100204.34;;;17.21;72.39
78354;BME280;67629;46.040;18.232;2023-07-08T01:43:29;100204.88;;;17.28;71.67
78354;BME280;67629;46.040;18.232;2023-07-08T01:44:00;100186.09;;;17.25;72.12
78354;BME280;67629;46.040;18.232;2023-07-08T01:44:33;100199.38;;;17.23;72.27
78354;BME280;67629;46.040;18.232;2023-07-08T01:45:14;100197.16;;;17.15;73.48
78354;BME280;67629;46.040;18.232;2023-07-08T01:45:46;100204.88;;;17.13;73.03
78354;BME280;67629;46.040;18.232;2023-07-08T01:46:22;100193.00;;;17.13;72.92
78354;BME280;67629;46.040;18.232;2023-07-08T01:46:56;100196.31;;;17.20;72.12
78354;BME280;67629;46.040;18.232;2023-07-08T01:47:28;100200.75;;;17.21;71.64
78354;BME280;67629;46.040;18.232;2023-07-08T01:48:07;100197.44;;;17.24;71.06
78354;BME280;67629;46.040;18.232;2023-07-08T01:48:41;100201.84;;;17.20;71.65
78354;BME280;67629;46.040;18.232;2023-07-08T01:49:14;100192.16;;;17.12;72.46
78354;BME280;67629;46.040;18.232;2023-07-08T01:49:47;100197.16;;;17.15;71.79
78354;BME280;67629;46.040;18.232;2023-07-08T01:50:20;100198.81;;;17.21;71.28
78354;BME280;67629;46.040;18.232;2023-07-08T01:50:56;100199.91;;;17.15;72.43
78354;BME280;67629;46.040;18.232;2023-07-08T01:51:28;100202.38;;;17.12;72.53
78354;BME280;67629;46.040;18.232;2023-07-08T01:51:59;100205.38;;;17.05;72.89
78354;BME280;67629;46.040;18.232;2023-07-08T01:52:30;100203.75;;;17.09;72.41
78354;BME280;67629;46.040;18.232;2023-07-08T01:53:04;100209.28;;;17.09;71.60
78354;BME280;67629;46.040;18.232;2023-07-08T01:53:39;100202.09;;;17.03;72.41
78354;BME280;67629;46.040;18.232;2023-07-08T01:54:13;100205.44;;;17.10;72.46
78354;BME280;67629;46.040;18.232;2023-07-08T01:54:43;100197.94;;;17.05;71.83
78354;BME280;67629;46.040;18.232;2023-07-08T01:55:14;100204.59;;;17.09;72.11
78354;BME280;67629;46.040;18.232;2023-07-08T01:55:45;100209.53;;;17.02;71.93
78354;BME280;67629;46.040;18.232;2023-07-08T01:56:15;100214.75;;;16.99;72.55
78354;BME280;67629;46.040;18.232;2023-07-08T01:56:46;100213.13;;;16.98;72.72
78354;BME280;67629;46.040;18.232;2023-07-08T01:57:17;100209.53;;;16.97;73.01
78354;BME280;67629;46.040;18.232;2023-07-08T01:57:48;100217.78;;;16.97;72.21
78354;BME280;67629;46.040;18.232;2023-07-08T01:58:20;100212.28;;;17.02;72.00
78354;BME280;67629;46.040;18.232;2023-07-08T01:58:51;100213.13;;;16.98;72.18
78354;BME280;67629;46.040;18.232;2023-07-08T01:59:22;100208.16;;;17.05;71.57
78354;BME280;67629;46.040;18.232;2023-07-08T01:59:52;100210.66;;;17.06;70.70
78354;BME280;67629;46.040;18.232;2023-07-08T02:00:23;100215.63;;;17.09;70.39
78354;BME280;67629;46.040;18.232;2023-07-08T02:00:54;100215.63;;;17.09;70.10
78354;BME280;67629;46.040;18.232;2023-07-08T02:01:25;100216.44;;;17.05;70.61
78354;BME280;67629;46.040;18.232;2023-07-08T02:01:56;100215.88;;;16.98;70.93
78354;BME280;67629;46.040;18.232;2023-07-08T02:02:26;100224.41;;;16.96;71.14
78354;BME280;67629;46.040;18.232;2023-07-08T02:02:57;100220.81;;;16.91;71.41
78354;BME280;67629;46.040;18.232;2023-07-08T02:03:28;100218.34;;;16.94;70.91
78354;BME280;67629;46.040;18.232;2023-07-08T02:03:58;100210.59;;;16.96;70.30
78354;BME280;67629;46.040;18.232;2023-07-08T02:04:29;100217.78;;;16.97;70.35
78354;BME280;67629;46.040;18.232;2023-07-08T02:05:00;100213.13;;;16.98;70.57
78354;BME280;67629;46.040;18.232;2023-07-08T02:05:31;100209.53;;;16.97;70.46
78354;BME280;67629;46.040;18.232;2023-07-08T02:06:03;100216.72;;;17.03;69.41
78354;BME280;67629;46.040;18.232;2023-07-08T02:06:33;100222.78;;;17.05;69.87
78354;BME280;67629;46.040;18.232;2023-07-08T02:07:04;100213.13;;;16.98;70.39
78354;BME280;67629;46.040;18.232;2023-07-08T02:07:35;100213.13;;;17.03;70.21
78354;BME280;67629;46.040;18.232;2023-07-08T02:08:05;100210.91;;;17.05;69.41
78354;BME280;67629;46.040;18.232;2023-07-08T02:08:36;100217.25;;;17.05;70.05
78354;BME280;67629;46.040;18.232;2023-07-08T02:09:06;100212.03;;;17.04;69.92
78354;BME280;67629;46.040;18.232;2023-07-08T02:09:37;100209.53;;;17.07;69.08
78354;BME280;67629;46.040;18.232;2023-07-08T02:10:11;100208.13;;;17.00;70.15
78354;BME280;67629;46.040;18.232;2023-07-08T02:10:43;100219.72;;;16.97;70.46
78354;BME280;67629;46.040;18.232;2023-07-08T02:11:14;100215.34;;;17.01;70.05
78354;BME280;67629;46.040;18.232;2023-07-08T02:11:45;100210.91;;;17.00;70.02
78354;BME280;67629;46.040;18.232;2023-07-08T02:12:15;100213.13;;;17.03;69.57
78354;BME280;67629;46.040;18.232;2023-07-08T02:12:46;100209.81;;;17.06;68.90
78354;BME280;67629;46.040;18.232;2023-07-08T02:13:17;100210.38;;;17.08;68.29
78354;BME280;67629;46.040;18.232;2023-07-08T02:13:48;100217.28;;;17.10;68.25
78354;BME280;67629;46.040;18.232;2023-07-08T02:14:19;100211.75;;;17.10;68.41
78354;BME280;67629;46.040;18.232;2023-07-08T02:14:49;100213.72;;;17.10;68.17
78354;BME280;67629;46.040;18.232;2023-07-08T02:15:20;100217.81;;;17.07;68.67
78354;BME280;67629;46.040;18.232;2023-07-08T02:15:50;100220.31;;;17.04;68.94
78354;BME280;67629;46.040;18.232;2023-07-08T02:16:26;100223.63;;;17.11;67.94
78354;BME280;67629;46.040;18.232;2023-07-08T02:16:57;100223.63;;;17.06;69.54
78354;BME280;67629;46.040;18.232;2023-07-08T02:17:27;100227.47;;;17.00;69.89
78354;BME280;67629;46.040;18.232;2023-07-08T02:18:01;100219.19;;;17.00;69.31
78354;BME280;67629;46.040;18.232;2023-07-08T02:18:31;100222.53;;;17.07;68.80
78354;BME280;67629;46.040;18.232;2023-07-08T02:19:02;100215.88;;;17.08;68.29
78354;BME280;67629;46.040;18.232;2023-07-08T02:19:33;100224.16;;;17.08;68.45
78354;BME280;67629;46.040;18.232;2023-07-08T02:20:04;100219.50;;;17.14;67.53
78354;BME280;67629;46.040;18.232;2023-07-08T02:20:35;100221.44;;;17.13;67.36
78354;BME280;67629;46.040;18.232;2023-07-08T02:21:06;100226.38;;;17.16;67.15
78354;BME280;67629;46.040;18.232;2023-07-08T02:21:36;100222.81;;;17.16;67.28
78354;BME280;67629;46.040;18.232;2023-07-08T02:22:07;100224.47;;;17.17;67.11
78354;BME280;67629;46.040;18.232;2023-07-08T02:22:38;100220.06;;;17.16;66.87
78354;BME280;67629;46.040;18.232;2023-07-08T02:23:08;100222.00;;;17.15;67.12
78354;BME280;67629;46.040;18.232;2023-07-08T02:23:39;100212.88;;;17.15;67.64
78354;BME280;67629;46.040;18.232;2023-07-08T02:24:10;100219.47;;;17.08;68.06
78354;BME280;67629;46.040;18.232;2023-07-08T02:24:41;100216.19;;;17.06;68.33
78354;BME280;67629;46.040;18.232;2023-07-08T02:25:11;100217.00;;;17.12;67.47
78354;BME280;67629;46.040;18.232;2023-07-08T02:25:50;100217.56;;;17.14;67.18
78354;BME280;67629;46.040;18.232;2023-07-08T02:26:21;100206.81;;;17.13;67.30
78354;BME280;67629;46.040;18.232;2023-07-08T02:26:52;100212.03;;;17.14;67.17
78354;BME280;67629;46.040;18.232;2023-07-08T02:27:23;100213.72;;;17.15;67.23
78354;BME280;67629;46.040;18.232;2023-07-08T02:27:53;100210.41;;;17.13;67.48
78354;BME280;67629;46.040;18.232;2023-07-08T02:28:27;100212.59;;;17.11;67.50
78354;BME280;67629;46.040;18.232;2023-07-08T02:28:58;100212.88;;;17.04;68.21
78354;BME280;67629;46.040;18.232;2023-07-08T02:29:29;100216.44;;;17.05;68.12
78354;BME280;67629;46.040;18.232;2023-07-08T02:30:02;100210.38;;;17.03;67.80
78354;BME280;67629;46.040;18.232;2023-07-08T02:30:33;100213.38;;;16.96;69.14
78354;BME280;67629;46.040;18.232;2023-07-08T02:31:04;100211.72;;;16.95;68.87
78354;BME280;67629;46.040;18.232;2023-07-08T02:31:34;100218.34;;;16.94;68.88
78354;BME280;67629;46.040;18.232;2023-07-08T02:32:06;100212.56;;;16.96;68.09
78354;BME280;67629;46.040;18.232;2023-07-08T02:32:37;100216.16;;;17.01;66.96
78354;BME280;67629;46.040;18.232;2023-07-08T02:33:09;100220.56;;;17.02;68.99
78354;BME280;67629;46.040;18.232;2023-07-08T02:33:40;100223.63;;;17.01;67.92
78354;BME280;67629;46.040;18.232;2023-07-08T02:34:10;100223.06;;;17.09;67.34
78354;BME280;67629;46.040;18.232;2023-07-08T02:34:41;100222.47;;;16.97;68.54
78354;BME280;67629;46.040;18.232;2023-07-08T02:35:12;100232.41;;;16.93;68.79
78354;BME280;67629;46.040;18.232;2023-07-08T02:35:43;100224.69;;;16.95;67.58
78354;BME280;67629;46.040;18.232;2023-07-08T02:36:14;100224.16;;;17.03;67.01
78354;BME280;67629;46.040;18.232;2023-07-08T02:36:44;100220.84;;;17.06;66.66
78354;BME280;67629;46.040;18.232;2023-07-08T02:37:15;100229.13;;;17.06;66.76
78354;BME280;67629;46.040;18.232;2023-07-08T02:37:45;100225.84;;;17.04;66.90
78354;BME280;67629;46.040;18.232;2023-07-08T02:38:16;100230.53;;;17.08;66.74
78354;BME280;67629;46.040;18.232;2023-07-08T02:38:46;100223.06;;;17.09;66.67
78354;BME280;67629;46.040;18.232;2023-07-08T02:39:17;100229.69;;;17.08;67.18
78354;BME280;67629;46.040;18.232;2023-07-08T02:39:48;100225.28;;;17.07;66.48
78354;BME280;67629;46.040;18.232;2023-07-08T02:40:19;100223.91;;;17.15;65.99
78354;BME280;67629;46.040;18.232;2023-07-08T02:40:50;100226.97;;;17.13;66.81
78354;BME280;67629;46.040;18.232;2023-07-08T02:41:21;100231.38;;;17.14;66.37
78354;BME280;67629;46.040;18.232;2023-07-08T02:41:52;100221.44;;;17.13;66.78
78354;BME280;67629;46.040;18.232;2023-07-08T02:42:22;100218.69;;;17.18;65.57
78354;BME280;67629;46.040;18.232;2023-07-08T02:42:53;100223.13;;;17.24;65.25
78354;BME280;67629;46.040;18.232;2023-07-08T02:43:23;100223.13;;;17.24;65.71
78354;BME280;67629;46.040;18.232;2023-07-08T02:43:54;100221.16;;;17.20;66.28
78354;BME280;67629;46.040;18.232;2023-07-08T02:44:25;100222.00;;;17.20;66.64
78354;BME280;67629;46.040;18.232;2023-07-08T02:44:56;100223.34;;;17.07;67.77
78354;BME280;67629;46.040;18.232;2023-07-08T02:45:27;100229.13;;;17.06;67.71
78354;BME280;67629;46.040;18.232;2023-07-08T02:45:58;100227.22;;;17.06;67.57
78354;BME280;67629;46.040;18.232;2023-07-08T02:46:28;100222.25;;;17.08;66.80
78354;BME280;67629;46.040;18.232;2023-07-08T02:46:59;100228.59;;;17.09;66.95
78354;BME280;67629;46.040;18.232;2023-07-08T02:47:30;100223.63;;;17.06;67.60
78354;BME280;67629;46.040;18.232;2023-07-08T02:48:01;100225.00;;;17.08;66.92
78354;BME280;67629;46.040;18.232;2023-07-08T02:48:31;100226.94;;;17.08;67.31
78354;BME280;67629;46.040;18.232;2023-07-08T02:49:02;100229.69;;;17.08;66.51
78354;BME280;67629;46.040;18.232;2023-07-08T02:49:32;100232.44;;;17.08;67.12
78354;BME280;67629;46.040;18.232;2023-07-08T02:50:04;100229.97;;;17.06;67.19
78354;BME280;67629;46.040;18.232;2023-07-08T02:50:35;100232.44;;;17.03;67.33
78354;BME280;67629;46.040;18.232;2023-07-08T02:51:06;100231.59;;;17.02;66.81
78354;BME280;67629;46.040;18.232;2023-07-08T02:51:39;100232.75;;;17.06;67.18
78354;BME280;67629;46.040;18.232;2023-07-08T02:52:09;100219.19;;;17.05;66.56
78354;BME280;67629;46.040;18.232;2023-07-08T02:52:40;100229.97;;;17.12;66.48
78354;BME280;67629;46.040;18.232;2023-07-08T02:53:13;100233.03;;;17.10;66.51
78354;BME280;67629;46.040;18.232;2023-07-08T02:53:44;100233.81;;;17.05;67.22
78354;BME280;67629;46.040;18.232;2023-07-08T02:54:15;100225.25;;;17.02;67.36
78354;BME280;67629;46.040;18.232;2023-07-08T02:54:45;100225.84;;;17.04;67.12
78354;BME280;67629;46.040;18.232;2023-07-08T02:55:16;100231.91;;;17.06;66.62
78354;BME280;67629;46.040;18.232;2023-07-08T02:55:46;100229.72;;;17.13;66.08